sensor_id;sensor_type;location;lat;lon;timestamp;P1;durP1;ratioP1;P2;durP2;ratioP2
28934;SDS011;16044;52.726;-2.108;2022-08-19T00:02:02;7.32;;;1.70;;
28934;SDS011;16044;52.726;-2.108;2022-08-19T00:04:31;4.22;;;1.80;;
28934;SDS011;16044;52.726;-2.108;2022-08-19T00:07:06;2.65;;;1.50;;
28934;SDS011;16044;52.726;-2.108;2022-08-19T00:09:34;5.93;;;1.92;;
28934;SDS011;16044;52.726;-2.108;2022-08-19T00:12:01;3.38;;;1.80;;
28934;SDS011;16044;52.726;-2.108;2022-08-19T00:14:30;3.72;;;1.80;;
28934;SDS011;16044;52.726;-2.108;2022-08-19T00:16:58;5.05;;;1.77;;
28934;SDS011;16044;52.726;-2.108;2022-08-19T00:19:26;5.65;;;2.00;;
28934;SDS011;16044;52.726;-2.108;2022-08-19T00:21:53;5.03;;;1.80;;
28934;SDS011;16044;52.726;-2.108;2022-08-19T00:24:22;4.80;;;1.88;;
28934;SDS011;16044;52.726;-2.108;2022-08-19T00:26:51;5.03;;;2.00;;
28934;SDS011;16044;52.726;-2.108;2022-08-19T00:29:19;2.28;;;1.30;;
28934;SDS011;16044;52.726;-2.108;2022-08-19T00:31:47;6.07;;;2.03;;
28934;SDS011;16044;52.726;-2.108;2022-08-19T00:34:15;5.82;;;2.13;;
28934;SDS011;16044;52.726;-2.108;2022-08-19T00:36:43;3.95;;;1.80;;
28934;SDS011;16044;52.726;-2.108;2022-08-19T00:39:11;2.25;;;1.50;;
28934;SDS011;16044;52.726;-2.108;2022-08-19T00:41:39;5.57;;;1.95;;
28934;SDS011;16044;52.726;-2.108;2022-08-19T00:44:12;4.70;;;1.67;;
28934;SDS011;16044;52.726;-2.108;2022-08-19T00:46:43;2.78;;;1.40;;
28934;SDS011;16044;52.726;-2.108;2022-08-19T00:49:34;3.70;;;1.90;;
28934;SDS011;16044;52.726;-2.108;2022-08-19T00:54:39;3.30;;;1.70;;
28934;SDS011;16044;52.726;-2.108;2022-08-19T00:57:08;5.43;;;1.98;;
28934;SDS011;16044;52.726;-2.108;2022-08-19T00:59:39;5.32;;;1.75;;
28934;SDS011;16044;52.726;-2.108;2022-08-19T01:02:28;4.57;;;2.08;;
28934;SDS011;16044;52.726;-2.108;2022-08-19T01:04:56;6.43;;;2.10;;
28934;SDS011;16044;52.726;-2.108;2022-08-19T01:07:23;6.93;;;1.80;;
28934;SDS011;16044;52.726;-2.108;2022-08-19T01:09:51;6.57;;;1.70;;
28934;SDS011;16044;52.726;-2.108;2022-08-19T01:12:18;6.30;;;2.00;;
28934;SDS011;16044;52.726;-2.108;2022-08-19T01:14:45;5.63;;;2.17;;
28934;SDS011;16044;52.726;-2.108;2022-08-19T01:17:14;5.00;;;1.80;;
28934;SDS011;16044;52.726;-2.108;2022-08-19T01:19:43;3.42;;;1.40;;
28934;SDS011;16044;52.726;-2.108;2022-08-19T01:22:19;7.05;;;1.83;;
28934;SDS011;16044;52.726;-2.108;2022-08-19T01:25:06;4.97;;;1.55;;
28934;SDS011;16044;52.726;-2.108;2022-08-19T01:27:41;4.72;;;1.77;;
28934;SDS011;16044;52.726;-2.108;2022-08-19T01:30:16;5.65;;;2.10;;
28934;SDS011;16044;52.726;-2.108;2022-08-19T01:32:49;7.70;;;2.20;;
28934;SDS011;16044;52.726;-2.108;2022-08-19T01:35:17;3.25;;;2.00;;
28934;SDS011;16044;52.726;-2.108;2022-08-19T01:37:50;4.53;;;1.83;;
28934;SDS011;16044;52.726;-2.108;2022-08-19T01:40:23;5.90;;;2.05;;
28934;SDS011;16044;52.726;-2.108;2022-08-19T01:42:53;5.40;;;1.98;;
28934;SDS011;16044;52.726;-2.108;2022-08-19T01:45:21;6.43;;;2.10;;
28934;SDS011;16044;52.726;-2.108;2022-08-19T01:47:51;5.03;;;1.88;;
28934;SDS011;16044;52.726;-2.108;2022-08-19T01:50:27;7.95;;;2.10;;
28934;SDS011;16044;52.726;-2.108;2022-08-19T01:52:57;6.10;;;2.17;;
28934;SDS011;16044;52.726;-2.108;2022-08-19T01:55:32;9.98;;;2.53;;
28934;SDS011;16044;52.726;-2.108;2022-08-19T01:58:08;7.43;;;1.95;;
28934;SDS011;16044;52.726;-2.108;2022-08-19T02:00:41;8.30;;;2.47;;
28934;SDS011;16044;52.726;-2.108;2022-08-19T02:03:09;8.13;;;2.10;;
28934;SDS011;16044;52.726;-2.108;2022-08-19T02:05:38;7.40;;;2.05;;
28934;SDS011;16044;52.726;-2.108;2022-08-19T02:08:07;7.55;;;2.25;;
28934;SDS011;16044;52.726;-2.108;2022-08-19T02:10:37;6.07;;;2.05;;
28934;SDS011;16044;52.726;-2.108;2022-08-19T02:13:07;6.10;;;1.90;;
28934;SDS011;16044;52.726;-2.108;2022-08-19T02:15:36;12.63;;;2.55;;
28934;SDS011;16044;52.726;-2.108;2022-08-19T02:18:03;14.13;;;2.42;;
28934;SDS011;16044;52.726;-2.108;2022-08-19T02:20:31;11.13;;;2.40;;
28934;SDS011;16044;52.726;-2.108;2022-08-19T02:22:58;15.23;;;2.40;;
28934;SDS011;16044;52.726;-2.108;2022-08-19T02:25:27;14.63;;;2.47;;
28934;SDS011;16044;52.726;-2.108;2022-08-19T02:27:54;13.85;;;2.65;;
28934;SDS011;16044;52.726;-2.108;2022-08-19T02:30:21;10.75;;;2.33;;
28934;SDS011;16044;52.726;-2.108;2022-08-19T02:32:49;16.35;;;3.03;;
28934;SDS011;16044;52.726;-2.108;2022-08-19T02:35:15;17.23;;;3.08;;
28934;SDS011;16044;52.726;-2.108;2022-08-19T02:37:43;16.02;;;2.83;;
28934;SDS011;16044;52.726;-2.108;2022-08-19T02:43:03;10.85;;;2.20;;
28934;SDS011;16044;52.726;-2.108;2022-08-19T02:45:36;12.82;;;2.40;;
28934;SDS011;16044;52.726;-2.108;2022-08-19T02:48:06;14.90;;;2.75;;
28934;SDS011;16044;52.726;-2.108;2022-08-19T02:50:47;11.70;;;2.20;;
28934;SDS011;16044;52.726;-2.108;2022-08-19T02:53:22;9.88;;;2.13;;
28934;SDS011;16044;52.726;-2.108;2022-08-19T02:55:51;10.82;;;2.35;;
28934;SDS011;16044;52.726;-2.108;2022-08-19T02:58:18;15.15;;;2.65;;
28934;SDS011;16044;52.726;-2.108;2022-08-19T03:00:48;17.35;;;3.10;;
28934;SDS011;16044;52.726;-2.108;2022-08-19T03:03:20;17.67;;;2.58;;
28934;SDS011;16044;52.726;-2.108;2022-08-19T03:05:48;16.05;;;3.03;;
28934;SDS011;16044;52.726;-2.108;2022-08-19T03:08:23;13.48;;;2.42;;
28934;SDS011;16044;52.726;-2.108;2022-08-19T03:10:52;15.20;;;2.78;;
28934;SDS011;16044;52.726;-2.108;2022-08-19T03:13:19;11.85;;;2.40;;
28934;SDS011;16044;52.726;-2.108;2022-08-19T03:15:47;18.20;;;2.70;;
28934;SDS011;16044;52.726;-2.108;2022-08-19T03:18:15;19.98;;;2.53;;
28934;SDS011;16044;52.726;-2.108;2022-08-19T03:20:49;13.82;;;2.53;;
28934;SDS011;16044;52.726;-2.108;2022-08-19T03:23:21;12.32;;;2.50;;
28934;SDS011;16044;52.726;-2.108;2022-08-19T03:25:49;14.73;;;2.83;;
28934;SDS011;16044;52.726;-2.108;2022-08-19T03:28:39;13.55;;;2.17;;
28934;SDS011;16044;52.726;-2.108;2022-08-19T03:31:06;12.70;;;2.63;;
28934;SDS011;16044;52.726;-2.108;2022-08-19T03:34:01;16.65;;;3.10;;
28934;SDS011;16044;52.726;-2.108;2022-08-19T03:36:28;12.93;;;2.67;;
28934;SDS011;16044;52.726;-2.108;2022-08-19T03:38:56;14.40;;;2.60;;
28934;SDS011;16044;52.726;-2.108;2022-08-19T03:41:27;11.48;;;1.95;;
28934;SDS011;16044;52.726;-2.108;2022-08-19T03:44:15;18.50;;;2.60;;
28934;SDS011;16044;52.726;-2.108;2022-08-19T03:46:48;10.93;;;2.42;;
28934;SDS011;16044;52.726;-2.108;2022-08-19T03:49:20;19.90;;;2.70;;
28934;SDS011;16044;52.726;-2.108;2022-08-19T03:51:54;16.88;;;2.35;;
28934;SDS011;16044;52.726;-2.108;2022-08-19T03:54:23;10.88;;;2.28;;
28934;SDS011;16044;52.726;-2.108;2022-08-19T03:56:52;10.70;;;2.30;;
28934;SDS011;16044;52.726;-2.108;2022-08-19T03:59:25;14.00;;;2.70;;
28934;SDS011;16044;52.726;-2.108;2022-08-19T04:01:56;13.30;;;2.45;;
28934;SDS011;16044;52.726;-2.108;2022-08-19T04:04:27;13.75;;;2.60;;
28934;SDS011;16044;52.726;-2.108;2022-08-19T04:06:57;18.45;;;2.75;;
28934;SDS011;16044;52.726;-2.108;2022-08-19T04:09:24;12.55;;;2.38;;
28934;SDS011;16044;52.726;-2.108;2022-08-19T04:11:53;13.45;;;2.42;;
28934;SDS011;16044;52.726;-2.108;2022-08-19T04:14:23;15.32;;;2.72;;
28934;SDS011;16044;52.726;-2.108;2022-08-19T04:16:57;11.65;;;2.33;;
28934;SDS011;16044;52.726;-2.108;2022-08-19T04:19:25;20.58;;;2.92;;
28934;SDS011;16044;52.726;-2.108;2022-08-19T04:21:55;15.55;;;2.20;;
28934;SDS011;16044;52.726;-2.108;2022-08-19T04:24:23;13.10;;;2.70;;
28934;SDS011;16044;52.726;-2.108;2022-08-19T04:26:51;14.68;;;2.58;;
28934;SDS011;16044;52.726;-2.108;2022-08-19T04:29:19;14.20;;;2.40;;
28934;SDS011;16044;52.726;-2.108;2022-08-19T04:31:52;14.75;;;2.13;;
28934;SDS011;16044;52.726;-2.108;2022-08-19T04:34:21;17.02;;;2.67;;
28934;SDS011;16044;52.726;-2.108;2022-08-19T04:36:53;16.95;;;2.50;;
28934;SDS011;16044;52.726;-2.108;2022-08-19T04:39:25;16.38;;;2.50;;
28934;SDS011;16044;52.726;-2.108;2022-08-19T04:42:15;13.52;;;2.88;;
28934;SDS011;16044;52.726;-2.108;2022-08-19T04:45:03;15.07;;;2.65;;
28934;SDS011;16044;52.726;-2.108;2022-08-19T04:47:37;10.85;;;2.38;;
28934;SDS011;16044;52.726;-2.108;2022-08-19T04:50:17;14.88;;;2.30;;
28934;SDS011;16044;52.726;-2.108;2022-08-19T04:52:44;14.93;;;2.70;;
28934;SDS011;16044;52.726;-2.108;2022-08-19T04:55:11;16.92;;;2.78;;
28934;SDS011;16044;52.726;-2.108;2022-08-19T04:57:40;13.48;;;2.58;;
28934;SDS011;16044;52.726;-2.108;2022-08-19T05:00:07;16.90;;;2.95;;
28934;SDS011;16044;52.726;-2.108;2022-08-19T05:02:36;14.98;;;3.00;;
28934;SDS011;16044;52.726;-2.108;2022-08-19T05:05:04;14.93;;;2.80;;
28934;SDS011;16044;52.726;-2.108;2022-08-19T05:07:33;17.63;;;2.90;;
28934;SDS011;16044;52.726;-2.108;2022-08-19T05:10:00;14.27;;;2.83;;
28934;SDS011;16044;52.726;-2.108;2022-08-19T05:12:29;15.68;;;2.60;;
28934;SDS011;16044;52.726;-2.108;2022-08-19T05:14:56;18.17;;;3.13;;
28934;SDS011;16044;52.726;-2.108;2022-08-19T05:17:25;20.27;;;3.63;;
28934;SDS011;16044;52.726;-2.108;2022-08-19T05:20:00;16.00;;;3.10;;
28934;SDS011;16044;52.726;-2.108;2022-08-19T05:22:46;12.60;;;2.67;;
28934;SDS011;16044;52.726;-2.108;2022-08-19T05:25:15;16.80;;;2.83;;
28934;SDS011;16044;52.726;-2.108;2022-08-19T05:27:46;18.63;;;3.33;;
28934;SDS011;16044;52.726;-2.108;2022-08-19T05:30:14;12.13;;;2.72;;
28934;SDS011;16044;52.726;-2.108;2022-08-19T05:32:43;17.05;;;3.25;;
28934;SDS011;16044;52.726;-2.108;2022-08-19T05:35:10;11.88;;;2.63;;
28934;SDS011;16044;52.726;-2.108;2022-08-19T05:37:38;14.07;;;2.70;;
28934;SDS011;16044;52.726;-2.108;2022-08-19T05:40:07;17.92;;;3.20;;
28934;SDS011;16044;52.726;-2.108;2022-08-19T05:42:35;18.35;;;3.40;;
28934;SDS011;16044;52.726;-2.108;2022-08-19T05:45:03;12.55;;;2.65;;
28934;SDS011;16044;52.726;-2.108;2022-08-19T05:47:30;15.30;;;3.20;;
28934;SDS011;16044;52.726;-2.108;2022-08-19T05:49:58;17.23;;;2.78;;
28934;SDS011;16044;52.726;-2.108;2022-08-19T05:52:25;16.08;;;2.80;;
28934;SDS011;16044;52.726;-2.108;2022-08-19T05:54:55;16.77;;;3.00;;
28934;SDS011;16044;52.726;-2.108;2022-08-19T05:57:23;12.52;;;2.58;;
28934;SDS011;16044;52.726;-2.108;2022-08-19T05:59:51;16.65;;;4.07;;
28934;SDS011;16044;52.726;-2.108;2022-08-19T06:02:25;12.23;;;2.42;;
28934;SDS011;16044;52.726;-2.108;2022-08-19T06:04:53;16.65;;;2.95;;
28934;SDS011;16044;52.726;-2.108;2022-08-19T06:07:20;15.02;;;3.15;;
28934;SDS011;16044;52.726;-2.108;2022-08-19T06:09:47;14.43;;;2.47;;
28934;SDS011;16044;52.726;-2.108;2022-08-19T06:12:29;14.85;;;2.92;;
28934;SDS011;16044;52.726;-2.108;2022-08-19T06:15:05;16.77;;;3.28;;
28934;SDS011;16044;52.726;-2.108;2022-08-19T06:17:35;15.60;;;3.28;;
28934;SDS011;16044;52.726;-2.108;2022-08-19T06:20:04;14.48;;;2.90;;
28934;SDS011;16044;52.726;-2.108;2022-08-19T06:22:37;14.18;;;2.75;;
28934;SDS011;16044;52.726;-2.108;2022-08-19T06:25:06;17.98;;;2.70;;
28934;SDS011;16044;52.726;-2.108;2022-08-19T06:27:35;15.43;;;2.70;;
28934;SDS011;16044;52.726;-2.108;2022-08-19T06:30:13;14.07;;;2.92;;
28934;SDS011;16044;52.726;-2.108;2022-08-19T06:32:41;11.48;;;2.83;;
28934;SDS011;16044;52.726;-2.108;2022-08-19T06:35:08;15.00;;;2.67;;
28934;SDS011;16044;52.726;-2.108;2022-08-19T06:37:37;17.38;;;3.10;;
28934;SDS011;16044;52.726;-2.108;2022-08-19T06:40:09;17.63;;;3.03;;
28934;SDS011;16044;52.726;-2.108;2022-08-19T06:42:38;11.85;;;2.78;;
28934;SDS011;16044;52.726;-2.108;2022-08-19T06:45:20;16.42;;;3.13;;
28934;SDS011;16044;52.726;-2.108;2022-08-19T06:47:51;18.55;;;2.95;;
28934;SDS011;16044;52.726;-2.108;2022-08-19T06:50:20;18.30;;;3.30;;
28934;SDS011;16044;52.726;-2.108;2022-08-19T06:52:51;17.55;;;3.42;;
28934;SDS011;16044;52.726;-2.108;2022-08-19T06:55:19;13.40;;;3.30;;
28934;SDS011;16044;52.726;-2.108;2022-08-19T06:57:46;16.92;;;3.22;;
28934;SDS011;16044;52.726;-2.108;2022-08-19T07:00:14;15.93;;;3.30;;
28934;SDS011;16044;52.726;-2.108;2022-08-19T07:02:42;16.00;;;3.25;;
28934;SDS011;16044;52.726;-2.108;2022-08-19T07:05:20;10.75;;;2.55;;
28934;SDS011;16044;52.726;-2.108;2022-08-19T07:07:48;16.73;;;3.40;;
28934;SDS011;16044;52.726;-2.108;2022-08-19T07:10:16;17.00;;;3.47;;
28934;SDS011;16044;52.726;-2.108;2022-08-19T07:12:43;21.85;;;3.70;;
28934;SDS011;16044;52.726;-2.108;2022-08-19T07:15:10;14.68;;;2.83;;
28934;SDS011;16044;52.726;-2.108;2022-08-19T07:17:38;16.67;;;3.20;;
28934;SDS011;16044;52.726;-2.108;2022-08-19T07:20:07;21.52;;;3.58;;
28934;SDS011;16044;52.726;-2.108;2022-08-19T07:22:39;13.23;;;2.88;;
28934;SDS011;16044;52.726;-2.108;2022-08-19T07:25:07;15.55;;;3.30;;
28934;SDS011;16044;52.726;-2.108;2022-08-19T07:27:36;17.42;;;3.05;;
28934;SDS011;16044;52.726;-2.108;2022-08-19T07:30:05;16.80;;;3.45;;
28934;SDS011;16044;52.726;-2.108;2022-08-19T07:32:37;16.83;;;2.80;;
28934;SDS011;16044;52.726;-2.108;2022-08-19T07:35:05;13.45;;;3.03;;
28934;SDS011;16044;52.726;-2.108;2022-08-19T07:37:34;15.52;;;2.70;;
28934;SDS011;16044;52.726;-2.108;2022-08-19T07:40:04;16.58;;;3.67;;
28934;SDS011;16044;52.726;-2.108;2022-08-19T07:42:33;14.30;;;3.10;;
28934;SDS011;16044;52.726;-2.108;2022-08-19T07:45:00;15.75;;;2.78;;
28934;SDS011;16044;52.726;-2.108;2022-08-19T07:47:28;14.82;;;2.95;;
28934;SDS011;16044;52.726;-2.108;2022-08-19T07:50:15;12.77;;;3.13;;
28934;SDS011;16044;52.726;-2.108;2022-08-19T07:52:42;15.15;;;3.47;;
28934;SDS011;16044;52.726;-2.108;2022-08-19T07:55:14;14.65;;;2.80;;
28934;SDS011;16044;52.726;-2.108;2022-08-19T07:58:03;16.70;;;3.03;;
28934;SDS011;16044;52.726;-2.108;2022-08-19T08:00:31;14.48;;;2.78;;
28934;SDS011;16044;52.726;-2.108;2022-08-19T08:02:58;16.45;;;3.20;;
28934;SDS011;16044;52.726;-2.108;2022-08-19T08:05:26;21.25;;;3.08;;
28934;SDS011;16044;52.726;-2.108;2022-08-19T08:08:14;15.13;;;2.92;;
28934;SDS011;16044;52.726;-2.108;2022-08-19T08:10:59;11.50;;;2.90;;
28934;SDS011;16044;52.726;-2.108;2022-08-19T08:13:27;15.35;;;3.58;;
28934;SDS011;16044;52.726;-2.108;2022-08-19T08:15:55;11.57;;;2.85;;
28934;SDS011;16044;52.726;-2.108;2022-08-19T08:18:23;18.15;;;3.10;;
28934;SDS011;16044;52.726;-2.108;2022-08-19T08:20:53;15.65;;;3.25;;
28934;SDS011;16044;52.726;-2.108;2022-08-19T08:23:21;18.33;;;3.42;;
28934;SDS011;16044;52.726;-2.108;2022-08-19T08:25:54;15.65;;;3.10;;
28934;SDS011;16044;52.726;-2.108;2022-08-19T08:28:24;12.80;;;2.90;;
28934;SDS011;16044;52.726;-2.108;2022-08-19T08:30:55;14.68;;;2.65;;
28934;SDS011;16044;52.726;-2.108;2022-08-19T08:33:25;18.58;;;3.42;;
28934;SDS011;16044;52.726;-2.108;2022-08-19T08:36:06;15.13;;;3.17;;
28934;SDS011;16044;52.726;-2.108;2022-08-19T08:38:34;12.93;;;3.20;;
28934;SDS011;16044;52.726;-2.108;2022-08-19T08:44:15;13.73;;;2.75;;
28934;SDS011;16044;52.726;-2.108;2022-08-19T08:46:49;13.23;;;3.25;;
28934;SDS011;16044;52.726;-2.108;2022-08-19T08:49:41;17.92;;;3.35;;
28934;SDS011;16044;52.726;-2.108;2022-08-19T08:52:26;13.77;;;3.03;;
28934;SDS011;16044;52.726;-2.108;2022-08-19T08:55:05;15.73;;;3.15;;
28934;SDS011;16044;52.726;-2.108;2022-08-19T09:00:20;14.73;;;3.08;;
28934;SDS011;16044;52.726;-2.108;2022-08-19T09:02:58;17.23;;;2.80;;
28934;SDS011;16044;52.726;-2.108;2022-08-19T09:05:40;16.17;;;3.15;;
28934;SDS011;16044;52.726;-2.108;2022-08-19T09:08:49;13.10;;;2.53;;
28934;SDS011;16044;52.726;-2.108;2022-08-19T09:11:34;17.63;;;3.35;;
28934;SDS011;16044;52.726;-2.108;2022-08-19T09:17:21;15.30;;;3.50;;
28934;SDS011;16044;52.726;-2.108;2022-08-19T09:19:58;12.50;;;3.15;;
28934;SDS011;16044;52.726;-2.108;2022-08-19T09:22:47;20.08;;;3.50;;
28934;SDS011;16044;52.726;-2.108;2022-08-19T09:25:16;14.45;;;3.35;;
28934;SDS011;16044;52.726;-2.108;2022-08-19T09:27:52;14.20;;;2.88;;
28934;SDS011;16044;52.726;-2.108;2022-08-19T09:30:32;13.00;;;3.25;;
28934;SDS011;16044;52.726;-2.108;2022-08-19T09:35:33;13.93;;;3.03;;
28934;SDS011;16044;52.726;-2.108;2022-08-19T09:38:18;15.90;;;3.40;;
28934;SDS011;16044;52.726;-2.108;2022-08-19T09:40:44;13.05;;;2.72;;
28934;SDS011;16044;52.726;-2.108;2022-08-19T09:43:11;11.60;;;3.00;;
28934;SDS011;16044;52.726;-2.108;2022-08-19T09:45:38;11.85;;;2.42;;
28934;SDS011;16044;52.726;-2.108;2022-08-19T09:48:05;11.57;;;2.45;;
28934;SDS011;16044;52.726;-2.108;2022-08-19T09:50:34;14.13;;;2.63;;
28934;SDS011;16044;52.726;-2.108;2022-08-19T09:53:17;11.35;;;2.58;;
28934;SDS011;16044;52.726;-2.108;2022-08-19T09:55:45;14.85;;;2.80;;
28934;SDS011;16044;52.726;-2.108;2022-08-19T09:58:14;9.55;;;2.40;;
28934;SDS011;16044;52.726;-2.108;2022-08-19T10:00:41;14.63;;;2.30;;
28934;SDS011;16044;52.726;-2.108;2022-08-19T10:03:16;13.63;;;2.83;;
28934;SDS011;16044;52.726;-2.108;2022-08-19T10:05:43;13.23;;;3.08;;
28934;SDS011;16044;52.726;-2.108;2022-08-19T10:08:42;11.13;;;2.78;;
28934;SDS011;16044;52.726;-2.108;2022-08-19T10:11:15;11.85;;;2.50;;
28934;SDS011;16044;52.726;-2.108;2022-08-19T10:13:54;9.80;;;2.95;;
28934;SDS011;16044;52.726;-2.108;2022-08-19T10:16:21;10.02;;;2.72;;
28934;SDS011;16044;52.726;-2.108;2022-08-19T10:18:55;11.40;;;2.13;;
28934;SDS011;16044;52.726;-2.108;2022-08-19T10:21:25;7.82;;;1.80;;
28934;SDS011;16044;52.726;-2.108;2022-08-19T10:23:58;11.23;;;2.30;;
28934;SDS011;16044;52.726;-2.108;2022-08-19T10:26:31;5.47;;;1.80;;
28934;SDS011;16044;52.726;-2.108;2022-08-19T10:29:04;6.53;;;1.38;;
28934;SDS011;16044;52.726;-2.108;2022-08-19T10:31:34;5.88;;;1.25;;
28934;SDS011;16044;52.726;-2.108;2022-08-19T10:34:21;6.65;;;1.45;;
28934;SDS011;16044;52.726;-2.108;2022-08-19T10:36:54;4.80;;;1.38;;
28934;SDS011;16044;52.726;-2.108;2022-08-19T10:39:27;8.75;;;1.75;;
28934;SDS011;16044;52.726;-2.108;2022-08-19T10:42:06;11.02;;;2.00;;
28934;SDS011;16044;52.726;-2.108;2022-08-19T10:44:37;9.35;;;2.00;;
28934;SDS011;16044;52.726;-2.108;2022-08-19T10:47:04;8.40;;;2.10;;
28934;SDS011;16044;52.726;-2.108;2022-08-19T10:49:54;9.98;;;2.22;;
28934;SDS011;16044;52.726;-2.108;2022-08-19T10:52:41;8.52;;;1.60;;
28934;SDS011;16044;52.726;-2.108;2022-08-19T10:55:17;10.07;;;2.03;;
28934;SDS011;16044;52.726;-2.108;2022-08-19T10:58:16;8.75;;;1.95;;
28934;SDS011;16044;52.726;-2.108;2022-08-19T11:00:56;10.13;;;2.10;;
28934;SDS011;16044;52.726;-2.108;2022-08-19T11:03:25;7.55;;;1.80;;
28934;SDS011;16044;52.726;-2.108;2022-08-19T11:05:57;7.97;;;1.77;;
28934;SDS011;16044;52.726;-2.108;2022-08-19T11:08:30;6.70;;;1.50;;
28934;SDS011;16044;52.726;-2.108;2022-08-19T11:11:00;7.22;;;1.80;;
28934;SDS011;16044;52.726;-2.108;2022-08-19T11:13:30;7.72;;;1.77;;
28934;SDS011;16044;52.726;-2.108;2022-08-19T11:16:11;6.43;;;1.63;;
28934;SDS011;16044;52.726;-2.108;2022-08-19T11:18:46;7.60;;;1.80;;
28934;SDS011;16044;52.726;-2.108;2022-08-19T11:21:29;8.95;;;1.83;;
28934;SDS011;16044;52.726;-2.108;2022-08-19T11:24:00;7.65;;;1.45;;
28934;SDS011;16044;52.726;-2.108;2022-08-19T11:26:31;8.57;;;1.70;;
28934;SDS011;16044;52.726;-2.108;2022-08-19T11:28:59;6.95;;;1.67;;
28934;SDS011;16044;52.726;-2.108;2022-08-19T11:31:28;7.60;;;1.70;;
28934;SDS011;16044;52.726;-2.108;2022-08-19T11:34:03;5.65;;;1.30;;
28934;SDS011;16044;52.726;-2.108;2022-08-19T11:36:34;9.30;;;1.63;;
28934;SDS011;16044;52.726;-2.108;2022-08-19T11:39:06;8.75;;;1.88;;
28934;SDS011;16044;52.726;-2.108;2022-08-19T11:41:39;7.88;;;1.98;;
28934;SDS011;16044;52.726;-2.108;2022-08-19T11:44:06;9.18;;;1.98;;
28934;SDS011;16044;52.726;-2.108;2022-08-19T11:46:35;8.20;;;1.60;;
28934;SDS011;16044;52.726;-2.108;2022-08-19T11:49:04;5.38;;;1.30;;
28934;SDS011;16044;52.726;-2.108;2022-08-19T11:51:39;11.70;;;1.73;;
28934;SDS011;16044;52.726;-2.108;2022-08-19T11:54:10;5.47;;;1.60;;
28934;SDS011;16044;52.726;-2.108;2022-08-19T11:56:39;6.53;;;1.40;;
28934;SDS011;16044;52.726;-2.108;2022-08-19T11:59:07;6.93;;;1.40;;
28934;SDS011;16044;52.726;-2.108;2022-08-19T12:01:40;8.18;;;1.70;;
28934;SDS011;16044;52.726;-2.108;2022-08-19T12:04:09;7.57;;;1.40;;
28934;SDS011;16044;52.726;-2.108;2022-08-19T12:06:38;7.65;;;1.65;;
28934;SDS011;16044;52.726;-2.108;2022-08-19T12:09:08;6.93;;;1.63;;
28934;SDS011;16044;52.726;-2.108;2022-08-19T12:11:36;5.22;;;1.40;;
28934;SDS011;16044;52.726;-2.108;2022-08-19T12:14:04;7.43;;;1.58;;
28934;SDS011;16044;52.726;-2.108;2022-08-19T12:16:32;5.68;;;1.50;;
28934;SDS011;16044;52.726;-2.108;2022-08-19T12:19:03;6.82;;;1.55;;
28934;SDS011;16044;52.726;-2.108;2022-08-19T12:21:32;5.75;;;1.58;;
28934;SDS011;16044;52.726;-2.108;2022-08-19T12:24:02;5.68;;;1.58;;
28934;SDS011;16044;52.726;-2.108;2022-08-19T12:26:31;7.35;;;1.80;;
28934;SDS011;16044;52.726;-2.108;2022-08-19T12:29:01;6.68;;;1.38;;
28934;SDS011;16044;52.726;-2.108;2022-08-19T12:31:28;7.63;;;1.42;;
28934;SDS011;16044;52.726;-2.108;2022-08-19T12:33:56;6.40;;;1.85;;
28934;SDS011;16044;52.726;-2.108;2022-08-19T12:36:23;8.00;;;1.60;;
28934;SDS011;16044;52.726;-2.108;2022-08-19T12:38:51;4.40;;;1.27;;
28934;SDS011;16044;52.726;-2.108;2022-08-19T12:41:19;7.28;;;1.50;;
28934;SDS011;16044;52.726;-2.108;2022-08-19T12:43:48;5.65;;;1.30;;
28934;SDS011;16044;52.726;-2.108;2022-08-19T12:46:17;4.55;;;1.10;;
28934;SDS011;16044;52.726;-2.108;2022-08-19T12:48:48;4.03;;;1.27;;
28934;SDS011;16044;52.726;-2.108;2022-08-19T12:51:20;4.22;;;1.35;;
28934;SDS011;16044;52.726;-2.108;2022-08-19T12:53:47;6.60;;;1.50;;
28934;SDS011;16044;52.726;-2.108;2022-08-19T12:56:16;5.95;;;1.40;;
28934;SDS011;16044;52.726;-2.108;2022-08-19T12:58:48;6.00;;;1.30;;
28934;SDS011;16044;52.726;-2.108;2022-08-19T13:01:18;4.88;;;1.20;;
28934;SDS011;16044;52.726;-2.108;2022-08-19T13:03:48;8.85;;;1.65;;
28934;SDS011;16044;52.726;-2.108;2022-08-19T13:06:16;5.35;;;1.27;;
28934;SDS011;16044;52.726;-2.108;2022-08-19T13:08:45;5.45;;;1.50;;
28934;SDS011;16044;52.726;-2.108;2022-08-19T13:11:14;6.47;;;1.40;;
28934;SDS011;16044;52.726;-2.108;2022-08-19T13:13:45;7.43;;;1.67;;
28934;SDS011;16044;52.726;-2.108;2022-08-19T13:16:15;8.80;;;1.70;;
28934;SDS011;16044;52.726;-2.108;2022-08-19T13:18:43;6.20;;;1.60;;
28934;SDS011;16044;52.726;-2.108;2022-08-19T13:23:48;11.18;;;1.50;;
28934;SDS011;16044;52.726;-2.108;2022-08-19T13:26:16;6.93;;;1.80;;
28934;SDS011;16044;52.726;-2.108;2022-08-19T13:28:44;9.60;;;1.60;;
28934;SDS011;16044;52.726;-2.108;2022-08-19T13:31:47;6.05;;;1.50;;
28934;SDS011;16044;52.726;-2.108;2022-08-19T13:34:33;8.80;;;1.70;;
28934;SDS011;16044;52.726;-2.108;2022-08-19T13:37:02;6.88;;;1.77;;
28934;SDS011;16044;52.726;-2.108;2022-08-19T13:39:31;7.03;;;1.75;;
28934;SDS011;16044;52.726;-2.108;2022-08-19T13:41:59;6.35;;;1.20;;
28934;SDS011;16044;52.726;-2.108;2022-08-19T13:44:27;7.68;;;1.30;;
28934;SDS011;16044;52.726;-2.108;2022-08-19T13:47:02;5.28;;;1.27;;
28934;SDS011;16044;52.726;-2.108;2022-08-19T13:49:34;3.67;;;0.95;;
28934;SDS011;16044;52.726;-2.108;2022-08-19T13:52:03;4.50;;;1.02;;
28934;SDS011;16044;52.726;-2.108;2022-08-19T13:54:31;5.25;;;1.10;;
28934;SDS011;16044;52.726;-2.108;2022-08-19T13:56:58;3.08;;;0.90;;
28934;SDS011;16044;52.726;-2.108;2022-08-19T13:59:25;3.88;;;0.90;;
28934;SDS011;16044;52.726;-2.108;2022-08-19T14:01:52;5.70;;;1.02;;
28934;SDS011;16044;52.726;-2.108;2022-08-19T14:04:20;2.97;;;0.90;;
28934;SDS011;16044;52.726;-2.108;2022-08-19T14:06:46;4.55;;;1.30;;
28934;SDS011;16044;52.726;-2.108;2022-08-19T14:09:13;3.75;;;0.80;;
28934;SDS011;16044;52.726;-2.108;2022-08-19T14:11:40;2.22;;;0.70;;
28934;SDS011;16044;52.726;-2.108;2022-08-19T14:14:07;1.73;;;0.65;;
28934;SDS011;16044;52.726;-2.108;2022-08-19T14:16:41;2.90;;;0.95;;
28934;SDS011;16044;52.726;-2.108;2022-08-19T14:19:09;3.35;;;0.85;;
28934;SDS011;16044;52.726;-2.108;2022-08-19T14:21:36;6.35;;;0.65;;
28934;SDS011;16044;52.726;-2.108;2022-08-19T14:24:07;2.88;;;0.68;;
28934;SDS011;16044;52.726;-2.108;2022-08-19T14:26:35;5.53;;;0.90;;
28934;SDS011;16044;52.726;-2.108;2022-08-19T14:29:02;5.63;;;0.88;;
28934;SDS011;16044;52.726;-2.108;2022-08-19T14:31:28;3.85;;;0.82;;
28934;SDS011;16044;52.726;-2.108;2022-08-19T14:33:56;4.45;;;0.60;;
28934;SDS011;16044;52.726;-2.108;2022-08-19T14:36:23;3.60;;;0.90;;
28934;SDS011;16044;52.726;-2.108;2022-08-19T14:38:50;1.75;;;0.65;;
28934;SDS011;16044;52.726;-2.108;2022-08-19T14:41:19;4.28;;;1.05;;
28934;SDS011;16044;52.726;-2.108;2022-08-19T14:43:49;6.47;;;1.02;;
28934;SDS011;16044;52.726;-2.108;2022-08-19T14:46:21;2.03;;;0.82;;
28934;SDS011;16044;52.726;-2.108;2022-08-19T14:48:55;2.80;;;0.73;;
28934;SDS011;16044;52.726;-2.108;2022-08-19T14:51:25;2.97;;;0.80;;
28934;SDS011;16044;52.726;-2.108;2022-08-19T14:53:53;4.13;;;0.82;;
28934;SDS011;16044;52.726;-2.108;2022-08-19T14:56:22;5.32;;;0.98;;
28934;SDS011;16044;52.726;-2.108;2022-08-19T14:58:52;4.82;;;1.10;;
28934;SDS011;16044;52.726;-2.108;2022-08-19T15:01:23;3.25;;;1.13;;
28934;SDS011;16044;52.726;-2.108;2022-08-19T15:03:50;2.70;;;0.85;;
28934;SDS011;16044;52.726;-2.108;2022-08-19T15:06:21;9.40;;;1.10;;
28934;SDS011;16044;52.726;-2.108;2022-08-19T15:08:53;3.38;;;1.02;;
28934;SDS011;16044;52.726;-2.108;2022-08-19T15:11:21;5.68;;;1.08;;
28934;SDS011;16044;52.726;-2.108;2022-08-19T15:13:51;4.03;;;1.00;;